sensor_id;sensor_type;location;lat;lon;timestamp;temperature;humidity
4813;DHT22;2420;51.202;8.698;2023-07-24T00:01:14;17.10;1.00
4813;DHT22;2420;51.202;8.698;2023-07-24T00:03:40;17.00;1.00
4813;DHT22;2420;51.202;8.698;2023-07-24T00:06:05;17.00;1.00
4813;DHT22;2420;51.202;8.698;2023-07-24T00:08:31;17.00;1.00
4813;DHT22;2420;51.202;8.698;2023-07-24T00:10:56;16.90;1.00
4813;DHT22;2420;51.202;8.698;2023-07-24T00:13:22;16.80;1.00
4813;DHT22;2420;51.202;8.698;2023-07-24T00:15:48;16.80;1.00
4813;DHT22;2420;51.202;8.698;2023-07-24T00:18:13;16.80;1.00
4813;DHT22;2420;51.202;8.698;2023-07-24T00:20:39;16.70;1.00
4813;DHT22;2420;51.202;8.698;2023-07-24T00:23:04;16.70;1.00
4813;DHT22;2420;51.202;8.698;2023-07-24T00:25:30;16.70;1.00
4813;DHT22;2420;51.202;8.698;2023-07-24T00:27:55;16.70;1.00
4813;DHT22;2420;51.202;8.698;2023-07-24T00:30:21;16.70;1.00
4813;DHT22;2420;51.202;8.698;2023-07-24T00:32:46;16.60;1.00
4813;DHT22;2420;51.202;8.698;2023-07-24T00:35:12;16.60;1.00
4813;DHT22;2420;51.202;8.698;2023-07-24T00:37:37;16.70;1.00
4813;DHT22;2420;51.202;8.698;2023-07-24T00:40:03;16.70;1.00
4813;DHT22;2420;51.202;8.698;2023-07-24T00:42:29;16.60;1.00
4813;DHT22;2420;51.202;8.698;2023-07-24T00:44:54;16.60;1.00
4813;DHT22;2420;51.202;8.698;2023-07-24T00:47:21;16.60;1.00
4813;DHT22;2420;51.202;8.698;2023-07-24T00:49:47;16.60;1.00
4813;DHT22;2420;51.202;8.698;2023-07-24T00:52:14;16.70;1.00
4813;DHT22;2420;51.202;8.698;2023-07-24T00:54:40;16.70;1.00
4813;DHT22;2420;51.202;8.698;2023-07-24T00:57:06;16.70;1.00
4813;DHT22;2420;51.202;8.698;2023-07-24T00:59:32;16.70;1.00
4813;DHT22;2420;51.202;8.698;2023-07-24T01:01:58;16.70;1.00
4813;DHT22;2420;51.202;8.698;2023-07-24T01:04:24;16.60;1.00
4813;DHT22;2420;51.202;8.698;2023-07-24T01:06:50;16.50;1.00
4813;DHT22;2420;51.202;8.698;2023-07-24T01:09:15;16.50;1.00
4813;DHT22;2420;51.202;8.698;2023-07-24T01:11:46;16.60;1.00
4813;DHT22;2420;51.202;8.698;2023-07-24T01:14:23;16.60;1.00
4813;DHT22;2420;51.202;8.698;2023-07-24T01:16:50;16.60;1.00
4813;DHT22;2420;51.202;8.698;2023-07-24T01:27:42;16.50;1.00
4813;DHT22;2420;51.202;8.698;2023-07-24T01:30:08;16.50;1.00
4813;DHT22;2420;51.202;8.698;2023-07-24T01:32:34;16.50;1.00
4813;DHT22;2420;51.202;8.698;2023-07-24T01:35:00;16.50;1.00
4813;DHT22;2420;51.202;8.698;2023-07-24T01:37:26;16.50;1.00
4813;DHT22;2420;51.202;8.698;2023-07-24T01:39:53;16.50;1.00
4813;DHT22;2420;51.202;8.698;2023-07-24T01:42:19;16.40;1.00
4813;DHT22;2420;51.202;8.698;2023-07-24T01:44:51;16.40;1.00
4813;DHT22;2420;51.202;8.698;2023-07-24T01:47:17;16.40;1.00
4813;DHT22;2420;51.202;8.698;2023-07-24T01:49:42;16.30;1.00
4813;DHT22;2420;51.202;8.698;2023-07-24T01:52:08;16.30;1.00
4813;DHT22;2420;51.202;8.698;2023-07-24T01:54:33;16.20;1.00
4813;DHT22;2420;51.202;8.698;2023-07-24T01:56:59;16.20;1.00
4813;DHT22;2420;51.202;8.698;2023-07-24T01:59:24;16.10;1.00
4813;DHT22;2420;51.202;8.698;2023-07-24T02:01:50;16.10;1.00
4813;DHT22;2420;51.202;8.698;2023-07-24T02:04:15;16.10;1.00
4813;DHT22;2420;51.202;8.698;2023-07-24T02:06:41;16.10;1.00
4813;DHT22;2420;51.202;8.698;2023-07-24T02:09:07;16.10;1.00
4813;DHT22;2420;51.202;8.698;2023-07-24T02:11:32;16.00;1.00
4813;DHT22;2420;51.202;8.698;2023-07-24T02:13:58;16.00;1.00
4813;DHT22;2420;51.202;8.698;2023-07-24T02:16:24;16.10;1.00
4813;DHT22;2420;51.202;8.698;2023-07-24T02:18:50;16.10;1.00
4813;DHT22;2420;51.202;8.698;2023-07-24T02:21:15;16.10;1.00
4813;DHT22;2420;51.202;8.698;2023-07-24T02:23:41;16.10;1.00
4813;DHT22;2420;51.202;8.698;2023-07-24T02:26:06;16.20;1.00
4813;DHT22;2420;51.202;8.698;2023-07-24T02:28:32;16.20;1.00
4813;DHT22;2420;51.202;8.698;2023-07-24T02:30:57;16.20;1.00
4813;DHT22;2420;51.202;8.698;2023-07-24T02:33:24;16.20;1.00
4813;DHT22;2420;51.202;8.698;2023-07-24T02:35:51;16.10;1.00
4813;DHT22;2420;51.202;8.698;2023-07-24T02:38:17;16.10;1.00
4813;DHT22;2420;51.202;8.698;2023-07-24T02:40:43;16.20;1.00
4813;DHT22;2420;51.202;8.698;2023-07-24T02:43:09;16.10;1.00
4813;DHT22;2420;51.202;8.698;2023-07-24T02:45:35;16.10;1.00
4813;DHT22;2420;51.202;8.698;2023-07-24T02:48:01;16.10;1.00
4813;DHT22;2420;51.202;8.698;2023-07-24T02:50:28;16.10;1.00
4813;DHT22;2420;51.202;8.698;2023-07-24T02:52:53;16.00;1.00
4813;DHT22;2420;51.202;8.698;2023-07-24T02:55:19;16.00;1.00
4813;DHT22;2420;51.202;8.698;2023-07-24T02:57:44;16.00;1.00
4813;DHT22;2420;51.202;8.698;2023-07-24T03:00:10;16.10;1.00
4813;DHT22;2420;51.202;8.698;2023-07-24T03:02:37;16.00;1.00
4813;DHT22;2420;51.202;8.698;2023-07-24T03:05:03;16.00;1.00
4813;DHT22;2420;51.202;8.698;2023-07-24T03:07:29;16.10;1.00
4813;DHT22;2420;51.202;8.698;2023-07-24T03:09:54;16.10;1.00
4813;DHT22;2420;51.202;8.698;2023-07-24T03:12:20;16.00;1.00
4813;DHT22;2420;51.202;8.698;2023-07-24T03:14:46;16.00;1.00
4813;DHT22;2420;51.202;8.698;2023-07-24T03:17:11;16.00;1.00
4813;DHT22;2420;51.202;8.698;2023-07-24T03:19:37;16.00;1.00
4813;DHT22;2420;51.202;8.698;2023-07-24T03:22:03;15.90;1.00
4813;DHT22;2420;51.202;8.698;2023-07-24T03:24:28;15.90;1.00
4813;DHT22;2420;51.202;8.698;2023-07-24T03:26:54;16.00;1.00
4813;DHT22;2420;51.202;8.698;2023-07-24T03:29:19;16.00;1.00
4813;DHT22;2420;51.202;8.698;2023-07-24T03:31:45;16.00;1.00
4813;DHT22;2420;51.202;8.698;2023-07-24T03:34:10;16.00;1.00
4813;DHT22;2420;51.202;8.698;2023-07-24T03:36:36;16.00;1.00
4813;DHT22;2420;51.202;8.698;2023-07-24T03:39:02;16.00;1.00
4813;DHT22;2420;51.202;8.698;2023-07-24T03:41:28;16.00;1.00
4813;DHT22;2420;51.202;8.698;2023-07-24T03:43:53;16.00;1.00
4813;DHT22;2420;51.202;8.698;2023-07-24T03:46:19;16.00;1.00
4813;DHT22;2420;51.202;8.698;2023-07-24T03:48:44;16.10;1.00
4813;DHT22;2420;51.202;8.698;2023-07-24T03:51:10;16.00;1.00
4813;DHT22;2420;51.202;8.698;2023-07-24T03:53:35;16.10;1.00
4813;DHT22;2420;51.202;8.698;2023-07-24T03:56:01;16.10;1.00
4813;DHT22;2420;51.202;8.698;2023-07-24T03:58:26;16.10;1.00
4813;DHT22;2420;51.202;8.698;2023-07-24T04:00:52;16.10;1.00
4813;DHT22;2420;51.202;8.698;2023-07-24T04:03:17;16.10;1.00
4813;DHT22;2420;51.202;8.698;2023-07-24T04:05:43;16.10;1.00
4813;DHT22;2420;51.202;8.698;2023-07-24T04:08:09;16.10;1.00
4813;DHT22;2420;51.202;8.698;2023-07-24T04:10:34;16.10;1.00
4813;DHT22;2420;51.202;8.698;2023-07-24T04:13:00;16.10;1.00
4813;DHT22;2420;51.202;8.698;2023-07-24T04:15:25;16.10;1.00
4813;DHT22;2420;51.202;8.698;2023-07-24T04:17:51;16.10;1.00
4813;DHT22;2420;51.202;8.698;2023-07-24T04:20:16;16.10;1.00
4813;DHT22;2420;51.202;8.698;2023-07-24T04:22:42;16.10;1.00
4813;DHT22;2420;51.202;8.698;2023-07-24T04:25:08;16.10;1.00
4813;DHT22;2420;51.202;8.698;2023-07-24T04:27:33;16.10;1.00
4813;DHT22;2420;51.202;8.698;2023-07-24T04:29:59;16.10;1.00
4813;DHT22;2420;51.202;8.698;2023-07-24T04:32:26;16.10;1.00
4813;DHT22;2420;51.202;8.698;2023-07-24T04:34:53;16.10;1.00
4813;DHT22;2420;51.202;8.698;2023-07-24T04:37:18;16.10;1.00
4813;DHT22;2420;51.202;8.698;2023-07-24T04:39:44;16.20;1.00
4813;DHT22;2420;51.202;8.698;2023-07-24T04:42:09;16.20;1.00
4813;DHT22;2420;51.202;8.698;2023-07-24T04:44:35;16.20;1.00
4813;DHT22;2420;51.202;8.698;2023-07-24T04:47:01;16.30;1.00
4813;DHT22;2420;51.202;8.698;2023-07-24T04:49:30;16.30;1.00
4813;DHT22;2420;51.202;8.698;2023-07-24T04:51:56;16.30;1.00
4813;DHT22;2420;51.202;8.698;2023-07-24T04:54:21;16.30;1.00
4813;DHT22;2420;51.202;8.698;2023-07-24T04:56:53;16.30;1.00
4813;DHT22;2420;51.202;8.698;2023-07-24T04:59:18;16.40;1.00
4813;DHT22;2420;51.202;8.698;2023-07-24T05:01:44;16.50;1.00
4813;DHT22;2420;51.202;8.698;2023-07-24T05:04:09;16.60;1.00
4813;DHT22;2420;51.202;8.698;2023-07-24T05:06:35;16.60;1.00
4813;DHT22;2420;51.202;8.698;2023-07-24T05:09:02;16.60;1.00
4813;DHT22;2420;51.202;8.698;2023-07-24T05:11:28;16.60;1.00
4813;DHT22;2420;51.202;8.698;2023-07-24T05:13:53;16.60;1.00
4813;DHT22;2420;51.202;8.698;2023-07-24T05:16:19;16.50;1.00
4813;DHT22;2420;51.202;8.698;2023-07-24T05:18:44;16.60;1.00
4813;DHT22;2420;51.202;8.698;2023-07-24T05:21:10;16.60;1.00
4813;DHT22;2420;51.202;8.698;2023-07-24T05:23:36;16.60;1.00
4813;DHT22;2420;51.202;8.698;2023-07-24T05:26:02;16.80;1.00
4813;DHT22;2420;51.202;8.698;2023-07-24T05:28:30;17.50;1.00
4813;DHT22;2420;51.202;8.698;2023-07-24T05:30:59;18.20;1.00
4813;DHT22;2420;51.202;8.698;2023-07-24T05:33:25;18.40;1.00
4813;DHT22;2420;51.202;8.698;2023-07-24T05:35:50;18.50;1.00
4813;DHT22;2420;51.202;8.698;2023-07-24T05:38:16;18.70;1.00
4813;DHT22;2420;51.202;8.698;2023-07-24T05:40:41;18.50;1.00
4813;DHT22;2420;51.202;8.698;2023-07-24T05:43:07;18.40;1.00
4813;DHT22;2420;51.202;8.698;2023-07-24T05:45:32;18.30;1.00
4813;DHT22;2420;51.202;8.698;2023-07-24T05:47:58;18.20;1.00
4813;DHT22;2420;51.202;8.698;2023-07-24T05:50:23;18.00;1.00
4813;DHT22;2420;51.202;8.698;2023-07-24T05:52:49;18.00;1.00
4813;DHT22;2420;51.202;8.698;2023-07-24T05:55:14;18.00;1.00
4813;DHT22;2420;51.202;8.698;2023-07-24T05:57:40;17.90;1.00
4813;DHT22;2420;51.202;8.698;2023-07-24T06:00:06;17.80;1.00
4813;DHT22;2420;51.202;8.698;2023-07-24T06:02:32;17.80;1.00
4813;DHT22;2420;51.202;8.698;2023-07-24T06:04:58;18.00;1.00
4813;DHT22;2420;51.202;8.698;2023-07-24T06:07:23;18.00;1.00
4813;DHT22;2420;51.202;8.698;2023-07-24T06:09:49;18.00;1.00
4813;DHT22;2420;51.202;8.698;2023-07-24T06:12:14;18.00;1.00
4813;DHT22;2420;51.202;8.698;2023-07-24T06:14:40;18.00;1.00
4813;DHT22;2420;51.202;8.698;2023-07-24T06:17:06;18.00;1.00
4813;DHT22;2420;51.202;8.698;2023-07-24T06:19:31;18.00;1.00
4813;DHT22;2420;51.202;8.698;2023-07-24T06:21:57;18.00;1.00
4813;DHT22;2420;51.202;8.698;2023-07-24T06:24:22;18.10;1.00
4813;DHT22;2420;51.202;8.698;2023-07-24T06:26:49;18.20;1.00
4813;DHT22;2420;51.202;8.698;2023-07-24T06:29:15;18.30;1.00
4813;DHT22;2420;51.202;8.698;2023-07-24T06:31:41;18.40;1.00
4813;DHT22;2420;51.202;8.698;2023-07-24T06:34:06;18.50;1.00
4813;DHT22;2420;51.202;8.698;2023-07-24T06:36:32;18.50;1.00
4813;DHT22;2420;51.202;8.698;2023-07-24T06:38:57;18.50;1.00
4813;DHT22;2420;51.202;8.698;2023-07-24T06:41:23;18.70;1.00
4813;DHT22;2420;51.202;8.698;2023-07-24T06:43:49;18.70;1.00
4813;DHT22;2420;51.202;8.698;2023-07-24T06:46:15;18.60;1.00
4813;DHT22;2420;51.202;8.698;2023-07-24T06:48:40;18.60;1.00
4813;DHT22;2420;51.202;8.698;2023-07-24T06:51:06;18.80;1.00
4813;DHT22;2420;51.202;8.698;2023-07-24T06:53:31;19.00;1.00
4813;DHT22;2420;51.202;8.698;2023-07-24T06:55:57;19.30;1.00
4813;DHT22;2420;51.202;8.698;2023-07-24T06:58:22;19.40;1.00
4813;DHT22;2420;51.202;8.698;2023-07-24T07:00:48;19.40;1.00
4813;DHT22;2420;51.202;8.698;2023-07-24T07:03:13;19.60;1.00
4813;DHT22;2420;51.202;8.698;2023-07-24T07:05:39;19.70;1.00
4813;DHT22;2420;51.202;8.698;2023-07-24T07:08:04;19.80;1.00
4813;DHT22;2420;51.202;8.698;2023-07-24T07:10:33;19.90;1.00
4813;DHT22;2420;51.202;8.698;2023-07-24T07:12:59;19.90;1.00
4813;DHT22;2420;51.202;8.698;2023-07-24T07:15:24;19.70;1.00
4813;DHT22;2420;51.202;8.698;2023-07-24T07:17:50;19.60;1.00
4813;DHT22;2420;51.202;8.698;2023-07-24T07:20:15;19.40;1.00
4813;DHT22;2420;51.202;8.698;2023-07-24T07:22:41;19.30;1.00
4813;DHT22;2420;51.202;8.698;2023-07-24T07:25:07;19.30;1.00
4813;DHT22;2420;51.202;8.698;2023-07-24T07:27:32;19.20;1.00
4813;DHT22;2420;51.202;8.698;2023-07-24T07:29:58;19.30;1.00
4813;DHT22;2420;51.202;8.698;2023-07-24T07:32:23;19.50;1.00
4813;DHT22;2420;51.202;8.698;2023-07-24T07:34:50;19.60;1.00
4813;DHT22;2420;51.202;8.698;2023-07-24T07:37:15;19.90;1.00
4813;DHT22;2420;51.202;8.698;2023-07-24T07:39:41;20.10;1.00
4813;DHT22;2420;51.202;8.698;2023-07-24T07:42:06;20.20;1.00
4813;DHT22;2420;51.202;8.698;2023-07-24T07:44:32;20.20;1.00
4813;DHT22;2420;51.202;8.698;2023-07-24T07:46:57;20.30;1.00
4813;DHT22;2420;51.202;8.698;2023-07-24T07:49:23;20.40;1.00
4813;DHT22;2420;51.202;8.698;2023-07-24T07:51:49;20.30;1.00
4813;DHT22;2420;51.202;8.698;2023-07-24T07:54:14;20.30;1.00
4813;DHT22;2420;51.202;8.698;2023-07-24T07:56:41;20.40;1.00
4813;DHT22;2420;51.202;8.698;2023-07-24T07:59:06;20.50;1.00
4813;DHT22;2420;51.202;8.698;2023-07-24T08:01:32;20.50;1.00
4813;DHT22;2420;51.202;8.698;2023-07-24T08:03:58;20.50;1.00
4813;DHT22;2420;51.202;8.698;2023-07-24T08:06:23;20.30;1.00
4813;DHT22;2420;51.202;8.698;2023-07-24T08:08:49;20.30;1.00
4813;DHT22;2420;51.202;8.698;2023-07-24T08:11:15;20.30;1.00
4813;DHT22;2420;51.202;8.698;2023-07-24T08:13:40;20.20;1.00
4813;DHT22;2420;51.202;8.698;2023-07-24T08:16:13;20.30;1.00
4813;DHT22;2420;51.202;8.698;2023-07-24T08:18:44;20.20;1.00
4813;DHT22;2420;51.202;8.698;2023-07-24T08:21:09;20.30;1.00
4813;DHT22;2420;51.202;8.698;2023-07-24T08:23:35;20.40;1.00
4813;DHT22;2420;51.202;8.698;2023-07-24T08:26:00;20.60;1.00
4813;DHT22;2420;51.202;8.698;2023-07-24T08:28:27;20.70;1.00
4813;DHT22;2420;51.202;8.698;2023-07-24T08:30:57;20.90;1.00
4813;DHT22;2420;51.202;8.698;2023-07-24T08:33:23;21.00;1.00
4813;DHT22;2420;51.202;8.698;2023-07-24T08:35:59;21.20;1.00
4813;DHT22;2420;51.202;8.698;2023-07-24T08:38:24;21.50;1.00
4813;DHT22;2420;51.202;8.698;2023-07-24T08:41:09;21.70;1.00
4813;DHT22;2420;51.202;8.698;2023-07-24T08:43:36;21.70;1.00
4813;DHT22;2420;51.202;8.698;2023-07-24T08:46:02;21.70;1.00
4813;DHT22;2420;51.202;8.698;2023-07-24T08:48:36;21.80;1.00
4813;DHT22;2420;51.202;8.698;2023-07-24T08:51:03;21.90;1.00
4813;DHT22;2420;51.202;8.698;2023-07-24T08:53:29;21.90;1.00
4813;DHT22;2420;51.202;8.698;2023-07-24T08:55:56;21.90;1.00
4813;DHT22;2420;51.202;8.698;2023-07-24T08:58:22;22.10;1.00
4813;DHT22;2420;51.202;8.698;2023-07-24T09:00:48;22.20;1.00
4813;DHT22;2420;51.202;8.698;2023-07-24T09:03:13;22.40;1.00
4813;DHT22;2420;51.202;8.698;2023-07-24T09:05:39;22.70;1.00
4813;DHT22;2420;51.202;8.698;2023-07-24T09:08:05;22.70;1.00
4813;DHT22;2420;51.202;8.698;2023-07-24T09:10:30;22.60;1.00
4813;DHT22;2420;51.202;8.698;2023-07-24T09:12:56;22.70;1.00
4813;DHT22;2420;51.202;8.698;2023-07-24T09:15:22;22.70;1.00
4813;DHT22;2420;51.202;8.698;2023-07-24T09:17:52;22.70;1.00
4813;DHT22;2420;51.202;8.698;2023-07-24T09:20:19;22.40;1.00
4813;DHT22;2420;51.202;8.698;2023-07-24T09:22:52;22.20;1.00
4813;DHT22;2420;51.202;8.698;2023-07-24T09:25:18;22.20;1.00
4813;DHT22;2420;51.202;8.698;2023-07-24T09:27:44;22.20;1.00
4813;DHT22;2420;51.202;8.698;2023-07-24T09:30:14;22.20;1.00
4813;DHT22;2420;51.202;8.698;2023-07-24T09:32:40;22.10;1.00
4813;DHT22;2420;51.202;8.698;2023-07-24T09:35:16;22.10;1.00
4813;DHT22;2420;51.202;8.698;2023-07-24T09:37:43;21.90;1.00
4813;DHT22;2420;51.202;8.698;2023-07-24T09:40:10;22.00;1.00
4813;DHT22;2420;51.202;8.698;2023-07-24T09:42:36;22.40;1.00
4813;DHT22;2420;51.202;8.698;2023-07-24T09:45:03;22.90;1.00
4813;DHT22;2420;51.202;8.698;2023-07-24T09:47:29;22.90;1.00
4813;DHT22;2420;51.202;8.698;2023-07-24T09:49:55;22.80;1.00
4813;DHT22;2420;51.202;8.698;2023-07-24T09:52:21;23.00;1.00
4813;DHT22;2420;51.202;8.698;2023-07-24T09:57:35;23.20;1.00
4813;DHT22;2420;51.202;8.698;2023-07-24T10:00:01;23.20;1.00
4813;DHT22;2420;51.202;8.698;2023-07-24T10:02:28;23.00;1.00
4813;DHT22;2420;51.202;8.698;2023-07-24T10:04:55;23.10;1.00
4813;DHT22;2420;51.202;8.698;2023-07-24T10:07:21;23.20;1.00
4813;DHT22;2420;51.202;8.698;2023-07-24T10:09:48;23.50;1.00
4813;DHT22;2420;51.202;8.698;2023-07-24T10:12:17;23.60;1.00
4813;DHT22;2420;51.202;8.698;2023-07-24T10:14:44;23.90;1.00
4813;DHT22;2420;51.202;8.698;2023-07-24T10:17:10;24.10;1.00
4813;DHT22;2420;51.202;8.698;2023-07-24T10:19:39;24.50;1.00
4813;DHT22;2420;51.202;8.698;2023-07-24T10:22:05;24.70;1.00
4813;DHT22;2420;51.202;8.698;2023-07-24T10:24:31;24.90;1.00
4813;DHT22;2420;51.202;8.698;2023-07-24T10:26:58;25.00;1.00
4813;DHT22;2420;51.202;8.698;2023-07-24T10:29:24;25.10;1.00
4813;DHT22;2420;51.202;8.698;2023-07-24T10:31:54;25.30;1.00
4813;DHT22;2420;51.202;8.698;2023-07-24T10:34:20;25.20;1.00
4813;DHT22;2420;51.202;8.698;2023-07-24T10:36:46;25.00;1.00
4813;DHT22;2420;51.202;8.698;2023-07-24T10:39:16;24.80;1.00
4813;DHT22;2420;51.202;8.698;2023-07-24T10:41:44;24.50;1.00
4813;DHT22;2420;51.202;8.698;2023-07-24T10:44:10;24.20;1.00
4813;DHT22;2420;51.202;8.698;2023-07-24T10:46:38;24.00;1.00
4813;DHT22;2420;51.202;8.698;2023-07-24T10:49:04;23.90;1.00
4813;DHT22;2420;51.202;8.698;2023-07-24T10:51:30;23.80;1.00
4813;DHT22;2420;51.202;8.698;2023-07-24T10:53:59;23.90;1.00
4813;DHT22;2420;51.202;8.698;2023-07-24T10:56:25;23.90;1.00
4813;DHT22;2420;51.202;8.698;2023-07-24T10:58:50;24.30;1.00
4813;DHT22;2420;51.202;8.698;2023-07-24T11:01:17;24.50;1.00
4813;DHT22;2420;51.202;8.698;2023-07-24T11:03:43;24.20;1.00
4813;DHT22;2420;51.202;8.698;2023-07-24T11:06:14;24.40;1.00
4813;DHT22;2420;51.202;8.698;2023-07-24T11:08:40;24.80;1.00
4813;DHT22;2420;51.202;8.698;2023-07-24T11:11:08;25.10;1.00
4813;DHT22;2420;51.202;8.698;2023-07-24T11:13:34;25.00;1.00
4813;DHT22;2420;51.202;8.698;2023-07-24T11:16:08;24.60;1.00
4813;DHT22;2420;51.202;8.698;2023-07-24T11:18:44;24.40;1.00
4813;DHT22;2420;51.202;8.698;2023-07-24T11:21:12;24.20;1.00
4813;DHT22;2420;51.202;8.698;2023-07-24T11:23:37;24.00;1.00
4813;DHT22;2420;51.202;8.698;2023-07-24T11:26:04;23.90;1.00
4813;DHT22;2420;51.202;8.698;2023-07-24T11:28:39;23.80;1.00
4813;DHT22;2420;51.202;8.698;2023-07-24T11:31:04;23.60;1.00
4813;DHT22;2420;51.202;8.698;2023-07-24T11:33:30;23.50;1.00
4813;DHT22;2420;51.202;8.698;2023-07-24T11:35:56;23.40;1.00
4813;DHT22;2420;51.202;8.698;2023-07-24T11:38:22;23.40;1.00
4813;DHT22;2420;51.202;8.698;2023-07-24T11:40:47;23.40;1.00
4813;DHT22;2420;51.202;8.698;2023-07-24T11:43:21;23.50;1.00
4813;DHT22;2420;51.202;8.698;2023-07-24T11:45:47;24.00;1.00
4813;DHT22;2420;51.202;8.698;2023-07-24T11:48:20;24.40;1.00
4813;DHT22;2420;51.202;8.698;2023-07-24T11:50:48;24.50;1.00
4813;DHT22;2420;51.202;8.698;2023-07-24T11:53:28;24.50;1.00
4813;DHT22;2420;51.202;8.698;2023-07-24T11:55:59;24.50;1.00
4813;DHT22;2420;51.202;8.698;2023-07-24T11:58:31;24.60;1.00
4813;DHT22;2420;51.202;8.698;2023-07-24T12:00:56;24.40;1.00
4813;DHT22;2420;51.202;8.698;2023-07-24T12:03:24;24.20;1.00
4813;DHT22;2420;51.202;8.698;2023-07-24T12:05:50;23.90;1.00
4813;DHT22;2420;51.202;8.698;2023-07-24T12:08:16;23.80;1.00
4813;DHT22;2420;51.202;8.698;2023-07-24T12:10:43;24.00;1.00
4813;DHT22;2420;51.202;8.698;2023-07-24T12:13:09;24.30;1.00
4813;DHT22;2420;51.202;8.698;2023-07-24T12:15:35;24.50;1.00
4813;DHT22;2420;51.202;8.698;2023-07-24T12:18:01;24.80;1.00
4813;DHT22;2420;51.202;8.698;2023-07-24T12:20:27;24.70;1.00
4813;DHT22;2420;51.202;8.698;2023-07-24T12:22:53;24.30;1.00
4813;DHT22;2420;51.202;8.698;2023-07-24T12:25:19;24.20;1.00
4813;DHT22;2420;51.202;8.698;2023-07-24T12:27:46;24.20;1.00
4813;DHT22;2420;51.202;8.698;2023-07-24T12:30:12;24.30;1.00
4813;DHT22;2420;51.202;8.698;2023-07-24T12:32:37;24.50;1.00
4813;DHT22;2420;51.202;8.698;2023-07-24T12:35:03;24.50;1.00
4813;DHT22;2420;51.202;8.698;2023-07-24T12:37:30;24.60;1.00
4813;DHT22;2420;51.202;8.698;2023-07-24T12:39:55;24.70;1.00
4813;DHT22;2420;51.202;8.698;2023-07-24T12:42:21;24.50;1.00
4813;DHT22;2420;51.202;8.698;2023-07-24T12:44:47;24.30;1.00
4813;DHT22;2420;51.202;8.698;2023-07-24T12:47:12;24.40;1.00
4813;DHT22;2420;51.202;8.698;2023-07-24T12:49:38;24.30;1.00
4813;DHT22;2420;51.202;8.698;2023-07-24T12:52:04;24.30;1.00
4813;DHT22;2420;51.202;8.698;2023-07-24T12:54:30;24.50;1.00
4813;DHT22;2420;51.202;8.698;2023-07-24T12:56:56;24.80;1.00
4813;DHT22;2420;51.202;8.698;2023-07-24T12:59:21;25.00;1.00
4813;DHT22;2420;51.202;8.698;2023-07-24T13:01:47;25.30;1.00
4813;DHT22;2420;51.202;8.698;2023-07-24T13:04:13;25.40;1.00
4813;DHT22;2420;51.202;8.698;2023-07-24T13:06:38;25.40;1.00
4813;DHT22;2420;51.202;8.698;2023-07-24T13:09:04;25.20;1.00
4813;DHT22;2420;51.202;8.698;2023-07-24T13:11:30;25.30;1.00
4813;DHT22;2420;51.202;8.698;2023-07-24T13:13:56;25.40;1.00
4813;DHT22;2420;51.202;8.698;2023-07-24T13:16:23;25.60;1.00
4813;DHT22;2420;51.202;8.698;2023-07-24T13:18:48;25.70;1.00
4813;DHT22;2420;51.202;8.698;2023-07-24T13:21:14;25.70;1.00
4813;DHT22;2420;51.202;8.698;2023-07-24T13:23:40;25.80;1.00
4813;DHT22;2420;51.202;8.698;2023-07-24T13:26:06;25.40;1.00
4813;DHT22;2420;51.202;8.698;2023-07-24T13:28:34;25.30;1.00
4813;DHT22;2420;51.202;8.698;2023-07-24T13:30:59;25.10;1.00
4813;DHT22;2420;51.202;8.698;2023-07-24T13:33:35;24.90;1.00
4813;DHT22;2420;51.202;8.698;2023-07-24T13:36:01;24.70;1.00
4813;DHT22;2420;51.202;8.698;2023-07-24T13:38:26;24.50;1.00
4813;DHT22;2420;51.202;8.698;2023-07-24T13:40:52;24.40;1.00
4813;DHT22;2420;51.202;8.698;2023-07-24T13:43:17;24.30;1.00
4813;DHT22;2420;51.202;8.698;2023-07-24T13:45:43;24.00;1.00
4813;DHT22;2420;51.202;8.698;2023-07-24T13:48:09;23.80;1.00
4813;DHT22;2420;51.202;8.698;2023-07-24T13:50:35;23.50;1.00
4813;DHT22;2420;51.202;8.698;2023-07-24T13:53:00;22.00;1.00
4813;DHT22;2420;51.202;8.698;2023-07-24T13:55:26;20.90;1.00
4813;DHT22;2420;51.202;8.698;2023-07-24T13:57:51;20.50;1.00
4813;DHT22;2420;51.202;8.698;2023-07-24T14:00:17;20.30;1.00
4813;DHT22;2420;51.202;8.698;2023-07-24T14:02:42;20.00;1.00
4813;DHT22;2420;51.202;8.698;2023-07-24T14:05:08;19.90;1.00
4813;DHT22;2420;51.202;8.698;2023-07-24T14:07:34;19.80;1.00
4813;DHT22;2420;51.202;8.698;2023-07-24T14:09:59;19.70;1.00
4813;DHT22;2420;51.202;8.698;2023-07-24T14:12:25;19.70;1.00
4813;DHT22;2420;51.202;8.698;2023-07-24T14:14:50;19.70;1.00
4813;DHT22;2420;51.202;8.698;2023-07-24T14:17:16;19.90;1.00
4813;DHT22;2420;51.202;8.698;2023-07-24T14:19:41;20.10;1.00
4813;DHT22;2420;51.202;8.698;2023-07-24T14:22:07;20.10;1.00
4813;DHT22;2420;51.202;8.698;2023-07-24T14:24:32;20.10;1.00
4813;DHT22;2420;51.202;8.698;2023-07-24T14:26:58;20.10;1.00
4813;DHT22;2420;51.202;8.698;2023-07-24T14:29:23;20.20;1.00
4813;DHT22;2420;51.202;8.698;2023-07-24T14:31:49;20.20;1.00
4813;DHT22;2420;51.202;8.698;2023-07-24T14:34:14;20.30;1.00
4813;DHT22;2420;51.202;8.698;2023-07-24T14:36:40;20.50;1.00
4813;DHT22;2420;51.202;8.698;2023-07-24T14:39:05;20.30;1.00
4813;DHT22;2420;51.202;8.698;2023-07-24T14:41:31;20.10;1.00
4813;DHT22;2420;51.202;8.698;2023-07-24T14:43:57;20.00;1.00
4813;DHT22;2420;51.202;8.698;2023-07-24T14:46:23;19.90;1.00
4813;DHT22;2420;51.202;8.698;2023-07-24T14:48:49;19.60;1.00
4813;DHT22;2420;51.202;8.698;2023-07-24T14:51:14;19.50;1.00
4813;DHT22;2420;51.202;8.698;2023-07-24T14:53:40;19.30;1.00
4813;DHT22;2420;51.202;8.698;2023-07-24T14:56:06;19.20;1.00
4813;DHT22;2420;51.202;8.698;2023-07-24T14:58:31;19.10;1.00
4813;DHT22;2420;51.202;8.698;2023-07-24T15:00:57;19.00;1.00
4813;DHT22;2420;51.202;8.698;2023-07-24T15:03:23;18.90;1.00
4813;DHT22;2420;51.202;8.698;2023-07-24T15:05:48;19.00;1.00
4813;DHT22;2420;51.202;8.698;2023-07-24T15:08:14;19.00;1.00
4813;DHT22;2420;51.202;8.698;2023-07-24T15:10:40;19.10;1.00
4813;DHT22;2420;51.202;8.698;2023-07-24T15:13:05;19.10;1.00
4813;DHT22;2420;51.202;8.698;2023-07-24T15:15:31;19.10;1.00
4813;DHT22;2420;51.202;8.698;2023-07-24T15:17:59;19.00;1.00
4813;DHT22;2420;51.202;8.698;2023-07-24T15:20:25;18.90;1.00
4813;DHT22;2420;51.202;8.698;2023-07-24T15:22:50;19.00;1.00
4813;DHT22;2420;51.202;8.698;2023-07-24T15:25:19;19.00;1.00
4813;DHT22;2420;51.202;8.698;2023-07-24T15:27:44;19.10;1.00
4813;DHT22;2420;51.202;8.698;2023-07-24T15:30:10;19.20;1.00
4813;DHT22;2420;51.202;8.698;2023-07-24T15:32:36;19.20;1.00
4813;DHT22;2420;51.202;8.698;2023-07-24T15:35:01;19.20;1.00
4813;DHT22;2420;51.202;8.698;2023-07-24T15:37:27;19.20;1.00
4813;DHT22;2420;51.202;8.698;2023-07-24T15:39:55;19.30;1.00
4813;DHT22;2420;51.202;8.698;2023-07-24T15:42:20;19.40;1.00
4813;DHT22;2420;51.202;8.698;2023-07-24T15:44:50;19.70;1.00
4813;DHT22;2420;51.202;8.698;2023-07-24T15:47:16;19.90;1.00
4813;DHT22;2420;51.202;8.698;2023-07-24T15:49:42;19.80;1.00
4813;DHT22;2420;51.202;8.698;2023-07-24T15:52:07;19.70;1.00
4813;DHT22;2420;51.202;8.698;2023-07-24T15:54:34;19.50;1.00
4813;DHT22;2420;51.202;8.698;2023-07-24T15:57:00;19.30;1.00
4813;DHT22;2420;51.202;8.698;2023-07-24T15:59:35;19.30;1.00
4813;DHT22;2420;51.202;8.698;2023-07-24T16:02:00;19.40;1.00
4813;DHT22;2420;51.202;8.698;2023-07-24T16:04:27;19.40;1.00
4813;DHT22;2420;51.202;8.698;2023-07-24T16:06:52;19.40;1.00
4813;DHT22;2420;51.202;8.698;2023-07-24T16:09:18;19.30;1.00
4813;DHT22;2420;51.202;8.698;2023-07-24T16:11:44;19.20;1.00
4813;DHT22;2420;51.202;8.698;2023-07-24T16:14:09;19.10;1.00
4813;DHT22;2420;51.202;8.698;2023-07-24T16:16:35;19.20;1.00
4813;DHT22;2420;51.202;8.698;2023-07-24T16:21:36;19.50;1.00
4813;DHT22;2420;51.202;8.698;2023-07-24T16:24:02;19.60;1.00